sensor_id;sensor_type;location;lat;lon;timestamp;P1;durP1;ratioP1;P2;durP2;ratioP2
18338;SDS011;9295;44.484;11.240;2022-11-04T00:01:39;79.03;;;36.90;;
18338;SDS011;9295;44.484;11.240;2022-11-04T00:04:10;58.30;;;29.47;;
18338;SDS011;9295;44.484;11.240;2022-11-04T00:06:39;45.63;;;25.23;;
18338;SDS011;9295;44.484;11.240;2022-11-04T00:09:10;34.73;;;20.13;;
18338;SDS011;9295;44.484;11.240;2022-11-04T00:11:40;30.37;;;19.30;;
18338;SDS011;9295;44.484;11.240;2022-11-04T00:14:27;30.23;;;16.67;;
18338;SDS011;9295;44.484;11.240;2022-11-04T00:16:55;26.17;;;15.73;;
18338;SDS011;9295;44.484;11.240;2022-11-04T00:19:42;28.33;;;16.83;;
18338;SDS011;9295;44.484;11.240;2022-11-04T00:22:28;26.23;;;15.80;;
18338;SDS011;9295;44.484;11.240;2022-11-04T00:25:15;21.60;;;15.63;;
18338;SDS011;9295;44.484;11.240;2022-11-04T00:28:02;18.53;;;13.30;;
18338;SDS011;9295;44.484;11.240;2022-11-04T00:30:52;16.63;;;12.10;;
18338;SDS011;9295;44.484;11.240;2022-11-04T00:33:22;18.17;;;11.80;;
18338;SDS011;9295;44.484;11.240;2022-11-04T00:35:53;15.43;;;11.10;;
18338;SDS011;9295;44.484;11.240;2022-11-04T00:38:23;16.27;;;11.80;;
18338;SDS011;9295;44.484;11.240;2022-11-04T00:40:53;19.67;;;12.20;;
18338;SDS011;9295;44.484;11.240;2022-11-04T00:43:21;14.87;;;10.30;;
18338;SDS011;9295;44.484;11.240;2022-11-04T00:45:50;13.47;;;10.40;;
18338;SDS011;9295;44.484;11.240;2022-11-04T00:48:18;17.73;;;9.93;;
18338;SDS011;9295;44.484;11.240;2022-11-04T00:50:47;16.90;;;10.73;;
18338;SDS011;9295;44.484;11.240;2022-11-04T00:53:15;14.47;;;10.03;;
18338;SDS011;9295;44.484;11.240;2022-11-04T00:55:43;16.67;;;10.97;;
18338;SDS011;9295;44.484;11.240;2022-11-04T00:58:13;20.43;;;10.47;;
18338;SDS011;9295;44.484;11.240;2022-11-04T01:00:41;14.77;;;9.50;;
18338;SDS011;9295;44.484;11.240;2022-11-04T01:03:10;16.73;;;10.93;;
18338;SDS011;9295;44.484;11.240;2022-11-04T01:05:38;17.90;;;11.80;;
18338;SDS011;9295;44.484;11.240;2022-11-04T01:08:06;20.57;;;11.70;;
18338;SDS011;9295;44.484;11.240;2022-11-04T01:10:35;18.60;;;11.23;;
18338;SDS011;9295;44.484;11.240;2022-11-04T01:13:10;18.33;;;12.20;;
18338;SDS011;9295;44.484;11.240;2022-11-04T01:15:40;17.90;;;11.37;;
18338;SDS011;9295;44.484;11.240;2022-11-04T01:18:08;18.30;;;12.40;;
18338;SDS011;9295;44.484;11.240;2022-11-04T01:20:36;14.70;;;10.03;;
18338;SDS011;9295;44.484;11.240;2022-11-04T01:23:05;8.00;;;6.30;;
18338;SDS011;9295;44.484;11.240;2022-11-04T01:25:33;9.20;;;4.90;;
18338;SDS011;9295;44.484;11.240;2022-11-04T01:28:05;8.10;;;5.03;;
18338;SDS011;9295;44.484;11.240;2022-11-04T01:30:36;4.03;;;3.20;;
18338;SDS011;9295;44.484;11.240;2022-11-04T01:33:06;7.07;;;3.23;;
18338;SDS011;9295;44.484;11.240;2022-11-04T01:35:35;5.50;;;2.93;;
18338;SDS011;9295;44.484;11.240;2022-11-04T01:38:03;6.97;;;2.73;;
18338;SDS011;9295;44.484;11.240;2022-11-04T01:40:34;2.90;;;2.43;;
18338;SDS011;9295;44.484;11.240;2022-11-04T01:43:04;3.87;;;2.70;;
18338;SDS011;9295;44.484;11.240;2022-11-04T01:45:39;2.90;;;2.23;;
18338;SDS011;9295;44.484;11.240;2022-11-04T01:48:11;4.33;;;2.20;;
18338;SDS011;9295;44.484;11.240;2022-11-04T01:50:43;3.30;;;1.90;;
18338;SDS011;9295;44.484;11.240;2022-11-04T01:53:12;3.83;;;2.20;;
18338;SDS011;9295;44.484;11.240;2022-11-04T01:55:46;3.70;;;2.20;;
18338;SDS011;9295;44.484;11.240;2022-11-04T01:58:19;3.90;;;2.10;;
18338;SDS011;9295;44.484;11.240;2022-11-04T02:00:51;4.20;;;2.50;;
18338;SDS011;9295;44.484;11.240;2022-11-04T02:03:22;5.93;;;2.63;;
18338;SDS011;9295;44.484;11.240;2022-11-04T02:05:53;3.83;;;2.90;;
18338;SDS011;9295;44.484;11.240;2022-11-04T02:08:21;5.67;;;3.40;;
18338;SDS011;9295;44.484;11.240;2022-11-04T02:10:52;4.13;;;2.97;;
18338;SDS011;9295;44.484;11.240;2022-11-04T02:13:24;3.40;;;2.33;;
18338;SDS011;9295;44.484;11.240;2022-11-04T02:15:54;5.53;;;2.10;;
18338;SDS011;9295;44.484;11.240;2022-11-04T02:18:35;4.30;;;2.73;;
18338;SDS011;9295;44.484;11.240;2022-11-04T02:21:20;2.70;;;2.10;;
18338;SDS011;9295;44.484;11.240;2022-11-04T02:30:12;6.83;;;4.73;;
18338;SDS011;9295;44.484;11.240;2022-11-04T02:35:47;5.40;;;2.60;;
18338;SDS011;9295;44.484;11.240;2022-11-04T02:38:28;8.47;;;2.83;;
18338;SDS011;9295;44.484;11.240;2022-11-04T02:41:03;3.77;;;2.60;;
18338;SDS011;9295;44.484;11.240;2022-11-04T02:43:43;6.10;;;2.67;;
18338;SDS011;9295;44.484;11.240;2022-11-04T02:46:18;10.83;;;2.60;;
18338;SDS011;9295;44.484;11.240;2022-11-04T02:48:52;4.57;;;2.60;;
18338;SDS011;9295;44.484;11.240;2022-11-04T02:51:24;5.00;;;3.47;;
18338;SDS011;9295;44.484;11.240;2022-11-04T02:53:59;11.70;;;3.90;;
18338;SDS011;9295;44.484;11.240;2022-11-04T02:56:33;7.37;;;3.70;;
18338;SDS011;9295;44.484;11.240;2022-11-04T02:59:05;5.37;;;2.50;;
18338;SDS011;9295;44.484;11.240;2022-11-04T03:01:39;4.57;;;2.67;;
18338;SDS011;9295;44.484;11.240;2022-11-04T03:04:11;8.90;;;2.27;;
18338;SDS011;9295;44.484;11.240;2022-11-04T03:06:42;3.90;;;2.40;;
18338;SDS011;9295;44.484;11.240;2022-11-04T03:09:13;3.37;;;2.57;;
18338;SDS011;9295;44.484;11.240;2022-11-04T03:11:43;5.83;;;2.60;;
18338;SDS011;9295;44.484;11.240;2022-11-04T03:14:15;5.97;;;2.40;;
18338;SDS011;9295;44.484;11.240;2022-11-04T03:16:47;8.63;;;4.20;;
18338;SDS011;9295;44.484;11.240;2022-11-04T03:19:21;5.70;;;3.77;;
18338;SDS011;9295;44.484;11.240;2022-11-04T03:21:54;9.20;;;4.63;;
18338;SDS011;9295;44.484;11.240;2022-11-04T03:24:27;5.50;;;3.10;;
18338;SDS011;9295;44.484;11.240;2022-11-04T03:26:58;4.40;;;2.87;;
18338;SDS011;9295;44.484;11.240;2022-11-04T03:29:29;4.37;;;2.47;;
18338;SDS011;9295;44.484;11.240;2022-11-04T03:32:04;5.70;;;2.60;;
18338;SDS011;9295;44.484;11.240;2022-11-04T03:34:40;5.17;;;2.63;;
18338;SDS011;9295;44.484;11.240;2022-11-04T03:37:08;8.60;;;2.80;;
18338;SDS011;9295;44.484;11.240;2022-11-04T03:39:37;4.50;;;2.50;;
18338;SDS011;9295;44.484;11.240;2022-11-04T03:42:07;4.50;;;2.40;;
18338;SDS011;9295;44.484;11.240;2022-11-04T03:44:47;4.73;;;2.50;;
18338;SDS011;9295;44.484;11.240;2022-11-04T03:47:18;6.27;;;3.00;;
18338;SDS011;9295;44.484;11.240;2022-11-04T03:49:50;4.80;;;2.40;;
18338;SDS011;9295;44.484;11.240;2022-11-04T03:52:22;6.00;;;2.50;;
18338;SDS011;9295;44.484;11.240;2022-11-04T03:54:50;9.13;;;2.63;;
18338;SDS011;9295;44.484;11.240;2022-11-04T03:57:26;6.53;;;3.10;;
18338;SDS011;9295;44.484;11.240;2022-11-04T04:00:05;4.10;;;2.30;;
18338;SDS011;9295;44.484;11.240;2022-11-04T04:02:40;9.07;;;2.60;;
18338;SDS011;9295;44.484;11.240;2022-11-04T04:05:17;6.20;;;2.80;;
18338;SDS011;9295;44.484;11.240;2022-11-04T04:07:49;4.50;;;2.70;;
18338;SDS011;9295;44.484;11.240;2022-11-04T04:10:25;4.93;;;3.00;;
18338;SDS011;9295;44.484;11.240;2022-11-04T04:13:15;5.40;;;2.67;;
18338;SDS011;9295;44.484;11.240;2022-11-04T04:15:48;9.80;;;2.50;;
18338;SDS011;9295;44.484;11.240;2022-11-04T04:18:24;8.40;;;3.20;;
18338;SDS011;9295;44.484;11.240;2022-11-04T04:20:58;9.23;;;3.10;;
18338;SDS011;9295;44.484;11.240;2022-11-04T04:23:29;7.43;;;3.20;;
18338;SDS011;9295;44.484;11.240;2022-11-04T04:26:18;5.47;;;2.60;;
18338;SDS011;9295;44.484;11.240;2022-11-04T04:29:06;8.90;;;3.67;;
18338;SDS011;9295;44.484;11.240;2022-11-04T04:31:36;7.80;;;3.30;;
18338;SDS011;9295;44.484;11.240;2022-11-04T04:34:25;9.30;;;3.20;;
18338;SDS011;9295;44.484;11.240;2022-11-04T04:36:57;8.27;;;3.13;;
18338;SDS011;9295;44.484;11.240;2022-11-04T04:39:31;10.00;;;3.00;;
18338;SDS011;9295;44.484;11.240;2022-11-04T04:42:21;8.37;;;3.83;;
18338;SDS011;9295;44.484;11.240;2022-11-04T04:45:07;6.63;;;3.20;;
18338;SDS011;9295;44.484;11.240;2022-11-04T04:47:38;8.23;;;3.70;;
18338;SDS011;9295;44.484;11.240;2022-11-04T04:50:12;7.43;;;2.97;;
18338;SDS011;9295;44.484;11.240;2022-11-04T04:52:44;7.17;;;3.30;;
18338;SDS011;9295;44.484;11.240;2022-11-04T04:55:15;11.33;;;3.77;;
18338;SDS011;9295;44.484;11.240;2022-11-04T04:57:43;7.90;;;3.33;;
18338;SDS011;9295;44.484;11.240;2022-11-04T05:00:13;8.20;;;3.10;;
18338;SDS011;9295;44.484;11.240;2022-11-04T05:02:43;11.27;;;3.20;;
18338;SDS011;9295;44.484;11.240;2022-11-04T05:05:12;6.83;;;2.70;;
18338;SDS011;9295;44.484;11.240;2022-11-04T05:07:46;7.77;;;3.40;;
18338;SDS011;9295;44.484;11.240;2022-11-04T05:10:15;7.10;;;2.97;;
18338;SDS011;9295;44.484;11.240;2022-11-04T05:12:44;7.70;;;3.07;;
18338;SDS011;9295;44.484;11.240;2022-11-04T05:15:30;10.43;;;3.70;;
18338;SDS011;9295;44.484;11.240;2022-11-04T05:18:00;8.30;;;2.93;;
18338;SDS011;9295;44.484;11.240;2022-11-04T05:20:30;6.57;;;2.90;;
18338;SDS011;9295;44.484;11.240;2022-11-04T05:23:00;5.87;;;2.83;;
18338;SDS011;9295;44.484;11.240;2022-11-04T05:25:28;5.80;;;3.00;;
18338;SDS011;9295;44.484;11.240;2022-11-04T05:27:58;22.97;;;13.47;;
18338;SDS011;9295;44.484;11.240;2022-11-04T05:30:28;41.23;;;22.37;;
18338;SDS011;9295;44.484;11.240;2022-11-04T05:32:57;44.43;;;26.80;;
18338;SDS011;9295;44.484;11.240;2022-11-04T05:35:32;58.90;;;31.10;;
18338;SDS011;9295;44.484;11.240;2022-11-04T05:38:01;59.37;;;30.17;;
18338;SDS011;9295;44.484;11.240;2022-11-04T05:40:29;65.37;;;33.70;;
18338;SDS011;9295;44.484;11.240;2022-11-04T05:42:58;64.03;;;34.40;;
18338;SDS011;9295;44.484;11.240;2022-11-04T05:45:27;72.83;;;37.30;;
18338;SDS011;9295;44.484;11.240;2022-11-04T05:47:57;84.90;;;41.10;;
18338;SDS011;9295;44.484;11.240;2022-11-04T05:50:26;92.10;;;42.00;;
18338;SDS011;9295;44.484;11.240;2022-11-04T05:52:57;116.10;;;48.30;;
18338;SDS011;9295;44.484;11.240;2022-11-04T05:55:26;121.80;;;51.30;;
18338;SDS011;9295;44.484;11.240;2022-11-04T05:57:54;134.87;;;51.20;;
18338;SDS011;9295;44.484;11.240;2022-11-04T06:00:25;141.20;;;54.87;;
18338;SDS011;9295;44.484;11.240;2022-11-04T06:02:54;138.70;;;55.33;;
18338;SDS011;9295;44.484;11.240;2022-11-04T06:05:24;139.87;;;57.77;;
18338;SDS011;9295;44.484;11.240;2022-11-04T06:07:52;141.17;;;56.13;;
18338;SDS011;9295;44.484;11.240;2022-11-04T06:10:22;131.57;;;50.90;;
18338;SDS011;9295;44.484;11.240;2022-11-04T06:12:51;128.00;;;50.53;;
18338;SDS011;9295;44.484;11.240;2022-11-04T06:15:19;130.37;;;50.00;;
18338;SDS011;9295;44.484;11.240;2022-11-04T06:17:48;124.93;;;51.00;;
18338;SDS011;9295;44.484;11.240;2022-11-04T06:20:16;121.10;;;50.20;;
18338;SDS011;9295;44.484;11.240;2022-11-04T06:23:03;129.90;;;51.67;;
18338;SDS011;9295;44.484;11.240;2022-11-04T06:25:32;139.43;;;51.80;;
18338;SDS011;9295;44.484;11.240;2022-11-04T06:28:01;129.10;;;51.87;;
18338;SDS011;9295;44.484;11.240;2022-11-04T06:30:29;111.73;;;46.50;;
18338;SDS011;9295;44.484;11.240;2022-11-04T06:32:58;100.83;;;44.07;;
18338;SDS011;9295;44.484;11.240;2022-11-04T06:35:26;97.77;;;42.13;;
18338;SDS011;9295;44.484;11.240;2022-11-04T06:37:54;92.93;;;39.43;;
18338;SDS011;9295;44.484;11.240;2022-11-04T06:40:23;89.60;;;38.73;;
18338;SDS011;9295;44.484;11.240;2022-11-04T06:42:53;90.90;;;39.23;;
18338;SDS011;9295;44.484;11.240;2022-11-04T06:45:21;85.47;;;38.93;;
18338;SDS011;9295;44.484;11.240;2022-11-04T06:47:50;84.57;;;38.00;;
18338;SDS011;9295;44.484;11.240;2022-11-04T06:50:18;74.50;;;36.67;;
18338;SDS011;9295;44.484;11.240;2022-11-04T06:52:46;76.73;;;37.07;;
18338;SDS011;9295;44.484;11.240;2022-11-04T06:55:15;69.53;;;32.50;;
18338;SDS011;9295;44.484;11.240;2022-11-04T06:57:43;40.93;;;18.40;;
18338;SDS011;9295;44.484;11.240;2022-11-04T07:00:13;18.03;;;6.10;;
18338;SDS011;9295;44.484;11.240;2022-11-04T07:02:42;12.20;;;4.13;;
18338;SDS011;9295;44.484;11.240;2022-11-04T07:05:11;8.43;;;3.90;;
18338;SDS011;9295;44.484;11.240;2022-11-04T07:07:40;6.63;;;2.63;;
18338;SDS011;9295;44.484;11.240;2022-11-04T07:10:08;5.43;;;3.03;;
18338;SDS011;9295;44.484;11.240;2022-11-04T07:12:37;3.50;;;1.80;;
18338;SDS011;9295;44.484;11.240;2022-11-04T07:15:06;4.43;;;1.83;;
18338;SDS011;9295;44.484;11.240;2022-11-04T07:17:36;4.57;;;2.00;;
18338;SDS011;9295;44.484;11.240;2022-11-04T07:20:05;3.40;;;1.63;;
18338;SDS011;9295;44.484;11.240;2022-11-04T07:22:34;2.20;;;1.30;;
18338;SDS011;9295;44.484;11.240;2022-11-04T07:25:02;3.50;;;1.40;;
18338;SDS011;9295;44.484;11.240;2022-11-04T07:27:31;2.87;;;1.50;;
18338;SDS011;9295;44.484;11.240;2022-11-04T07:30:00;6.23;;;1.53;;
18338;SDS011;9295;44.484;11.240;2022-11-04T07:32:28;2.67;;;1.77;;
18338;SDS011;9295;44.484;11.240;2022-11-04T07:34:58;3.70;;;1.30;;
18338;SDS011;9295;44.484;11.240;2022-11-04T07:37:26;3.97;;;1.17;;
18338;SDS011;9295;44.484;11.240;2022-11-04T07:39:55;2.80;;;1.10;;
18338;SDS011;9295;44.484;11.240;2022-11-04T07:42:23;4.57;;;1.40;;
18338;SDS011;9295;44.484;11.240;2022-11-04T07:44:54;2.70;;;1.00;;
18338;SDS011;9295;44.484;11.240;2022-11-04T07:47:22;3.80;;;1.10;;
18338;SDS011;9295;44.484;11.240;2022-11-04T07:49:51;5.03;;;1.23;;
18338;SDS011;9295;44.484;11.240;2022-11-04T07:52:21;2.03;;;1.03;;
18338;SDS011;9295;44.484;11.240;2022-11-04T07:54:49;3.30;;;1.40;;
18338;SDS011;9295;44.484;11.240;2022-11-04T07:57:18;7.23;;;1.20;;
18338;SDS011;9295;44.484;11.240;2022-11-04T07:59:46;3.70;;;1.13;;
18338;SDS011;9295;44.484;11.240;2022-11-04T08:02:15;3.57;;;1.10;;
18338;SDS011;9295;44.484;11.240;2022-11-04T08:04:51;5.73;;;1.13;;
18338;SDS011;9295;44.484;11.240;2022-11-04T08:07:21;4.17;;;1.10;;
18338;SDS011;9295;44.484;11.240;2022-11-04T08:09:49;2.10;;;1.07;;
18338;SDS011;9295;44.484;11.240;2022-11-04T08:12:18;2.43;;;1.10;;
18338;SDS011;9295;44.484;11.240;2022-11-04T08:14:49;2.00;;;1.20;;
18338;SDS011;9295;44.484;11.240;2022-11-04T08:17:17;2.17;;;1.00;;
18338;SDS011;9295;44.484;11.240;2022-11-04T08:19:46;1.60;;;1.00;;
18338;SDS011;9295;44.484;11.240;2022-11-04T08:22:14;2.00;;;1.20;;
18338;SDS011;9295;44.484;11.240;2022-11-04T08:24:44;1.80;;;1.00;;
18338;SDS011;9295;44.484;11.240;2022-11-04T08:27:13;2.93;;;1.10;;
18338;SDS011;9295;44.484;11.240;2022-11-04T08:29:42;3.97;;;1.20;;
18338;SDS011;9295;44.484;11.240;2022-11-04T08:32:10;2.63;;;1.30;;
18338;SDS011;9295;44.484;11.240;2022-11-04T08:34:39;2.27;;;1.20;;
18338;SDS011;9295;44.484;11.240;2022-11-04T08:37:07;2.67;;;1.03;;
18338;SDS011;9295;44.484;11.240;2022-11-04T08:39:36;2.37;;;1.20;;
18338;SDS011;9295;44.484;11.240;2022-11-04T08:42:05;1.80;;;1.10;;
18338;SDS011;9295;44.484;11.240;2022-11-04T08:44:34;2.63;;;1.10;;
18338;SDS011;9295;44.484;11.240;2022-11-04T08:47:02;1.93;;;1.00;;
18338;SDS011;9295;44.484;11.240;2022-11-04T08:49:31;3.60;;;1.20;;
18338;SDS011;9295;44.484;11.240;2022-11-04T08:52:04;2.13;;;1.07;;
18338;SDS011;9295;44.484;11.240;2022-11-04T08:54:33;3.30;;;0.90;;
18338;SDS011;9295;44.484;11.240;2022-11-04T08:57:01;3.40;;;1.10;;
18338;SDS011;9295;44.484;11.240;2022-11-04T08:59:50;1.60;;;0.90;;
18338;SDS011;9295;44.484;11.240;2022-11-04T09:02:18;5.30;;;1.17;;
18338;SDS011;9295;44.484;11.240;2022-11-04T09:04:46;3.10;;;1.10;;
18338;SDS011;9295;44.484;11.240;2022-11-04T09:07:14;2.00;;;1.20;;
18338;SDS011;9295;44.484;11.240;2022-11-04T09:09:43;3.90;;;1.60;;
18338;SDS011;9295;44.484;11.240;2022-11-04T09:12:11;8.03;;;2.20;;
18338;SDS011;9295;44.484;11.240;2022-11-04T09:14:40;6.90;;;1.73;;
18338;SDS011;9295;44.484;11.240;2022-11-04T09:17:09;1.80;;;1.13;;
18338;SDS011;9295;44.484;11.240;2022-11-04T09:19:38;1.70;;;0.90;;
18338;SDS011;9295;44.484;11.240;2022-11-04T09:22:06;1.90;;;1.20;;
18338;SDS011;9295;44.484;11.240;2022-11-04T09:24:35;1.90;;;1.10;;
18338;SDS011;9295;44.484;11.240;2022-11-04T09:27:03;1.97;;;0.90;;
18338;SDS011;9295;44.484;11.240;2022-11-04T09:29:32;2.60;;;1.10;;
18338;SDS011;9295;44.484;11.240;2022-11-04T09:32:01;3.23;;;1.17;;
18338;SDS011;9295;44.484;11.240;2022-11-04T09:34:31;2.33;;;1.30;;
18338;SDS011;9295;44.484;11.240;2022-11-04T09:37:00;4.80;;;1.10;;
18338;SDS011;9295;44.484;11.240;2022-11-04T09:39:28;2.97;;;1.23;;
18338;SDS011;9295;44.484;11.240;2022-11-04T09:42:02;2.70;;;1.40;;
18338;SDS011;9295;44.484;11.240;2022-11-04T09:45:00;1.90;;;1.00;;
18338;SDS011;9295;44.484;11.240;2022-11-04T09:47:49;3.33;;;1.30;;
18338;SDS011;9295;44.484;11.240;2022-11-04T09:50:24;2.20;;;1.17;;
18338;SDS011;9295;44.484;11.240;2022-11-04T09:52:54;3.63;;;1.20;;
18338;SDS011;9295;44.484;11.240;2022-11-04T09:55:28;3.50;;;1.40;;
18338;SDS011;9295;44.484;11.240;2022-11-04T09:58:01;6.53;;;1.40;;
18338;SDS011;9295;44.484;11.240;2022-11-04T10:00:30;3.93;;;1.10;;
18338;SDS011;9295;44.484;11.240;2022-11-04T10:03:10;4.93;;;1.57;;
18338;SDS011;9295;44.484;11.240;2022-11-04T10:05:57;6.27;;;1.10;;
18338;SDS011;9295;44.484;11.240;2022-11-04T10:08:41;2.00;;;1.10;;
18338;SDS011;9295;44.484;11.240;2022-11-04T10:11:20;3.17;;;1.30;;
18338;SDS011;9295;44.484;11.240;2022-11-04T10:14:02;3.90;;;1.40;;
18338;SDS011;9295;44.484;11.240;2022-11-04T10:16:45;1.93;;;1.10;;
18338;SDS011;9295;44.484;11.240;2022-11-04T10:19:28;2.43;;;1.20;;
18338;SDS011;9295;44.484;11.240;2022-11-04T10:22:09;2.23;;;1.10;;
18338;SDS011;9295;44.484;11.240;2022-11-04T10:24:46;3.07;;;1.30;;
18338;SDS011;9295;44.484;11.240;2022-11-04T10:27:22;2.33;;;1.23;;
18338;SDS011;9295;44.484;11.240;2022-11-04T10:29:54;1.90;;;1.10;;
18338;SDS011;9295;44.484;11.240;2022-11-04T10:32:27;2.50;;;1.20;;
18338;SDS011;9295;44.484;11.240;2022-11-04T10:35:00;4.30;;;1.47;;
18338;SDS011;9295;44.484;11.240;2022-11-04T10:37:33;2.47;;;1.00;;
18338;SDS011;9295;44.484;11.240;2022-11-04T10:40:04;2.60;;;1.30;;
18338;SDS011;9295;44.484;11.240;2022-11-04T10:42:43;4.73;;;1.37;;
18338;SDS011;9295;44.484;11.240;2022-11-04T10:45:12;2.67;;;1.30;;
18338;SDS011;9295;44.484;11.240;2022-11-04T10:47:42;4.10;;;1.50;;
18338;SDS011;9295;44.484;11.240;2022-11-04T10:50:22;3.23;;;1.30;;
18338;SDS011;9295;44.484;11.240;2022-11-04T10:53:12;3.13;;;1.53;;
18338;SDS011;9295;44.484;11.240;2022-11-04T10:55:46;2.50;;;1.17;;
18338;SDS011;9295;44.484;11.240;2022-11-04T10:58:22;5.20;;;1.23;;
18338;SDS011;9295;44.484;11.240;2022-11-04T11:00:52;5.37;;;1.23;;
18338;SDS011;9295;44.484;11.240;2022-11-04T11:03:27;5.77;;;1.00;;
18338;SDS011;9295;44.484;11.240;2022-11-04T11:06:32;2.57;;;1.10;;
18338;SDS011;9295;44.484;11.240;2022-11-04T11:09:12;2.40;;;1.00;;
18338;SDS011;9295;44.484;11.240;2022-11-04T11:11:46;5.07;;;1.10;;
18338;SDS011;9295;44.484;11.240;2022-11-04T11:14:17;2.90;;;1.10;;
18338;SDS011;9295;44.484;11.240;2022-11-04T11:16:46;6.00;;;1.30;;
18338;SDS011;9295;44.484;11.240;2022-11-04T11:19:16;7.77;;;1.43;;
18338;SDS011;9295;44.484;11.240;2022-11-04T11:21:46;3.40;;;1.30;;
18338;SDS011;9295;44.484;11.240;2022-11-04T11:24:19;2.77;;;1.30;;
18338;SDS011;9295;44.484;11.240;2022-11-04T11:26:49;3.00;;;1.20;;
18338;SDS011;9295;44.484;11.240;2022-11-04T11:29:21;3.13;;;1.10;;
18338;SDS011;9295;44.484;11.240;2022-11-04T11:31:51;2.83;;;1.13;;
18338;SDS011;9295;44.484;11.240;2022-11-04T11:34:22;2.20;;;1.10;;
18338;SDS011;9295;44.484;11.240;2022-11-04T11:36:53;2.77;;;1.20;;
18338;SDS011;9295;44.484;11.240;2022-11-04T11:39:24;2.20;;;1.27;;
18338;SDS011;9295;44.484;11.240;2022-11-04T11:41:56;3.13;;;1.20;;
18338;SDS011;9295;44.484;11.240;2022-11-04T11:44:28;5.50;;;1.97;;
18338;SDS011;9295;44.484;11.240;2022-11-04T11:46:59;2.93;;;1.40;;
18338;SDS011;9295;44.484;11.240;2022-11-04T11:49:30;4.00;;;1.40;;
18338;SDS011;9295;44.484;11.240;2022-11-04T11:52:15;2.70;;;1.60;;
18338;SDS011;9295;44.484;11.240;2022-11-04T11:54:53;4.27;;;1.20;;
18338;SDS011;9295;44.484;11.240;2022-11-04T11:57:30;4.67;;;1.40;;
18338;SDS011;9295;44.484;11.240;2022-11-04T12:00:08;6.10;;;1.50;;
18338;SDS011;9295;44.484;11.240;2022-11-04T12:03:02;2.63;;;1.30;;
18338;SDS011;9295;44.484;11.240;2022-11-04T12:05:40;4.63;;;1.30;;
18338;SDS011;9295;44.484;11.240;2022-11-04T12:08:38;3.43;;;1.50;;
18338;SDS011;9295;44.484;11.240;2022-11-04T12:11:48;3.30;;;1.20;;
18338;SDS011;9295;44.484;11.240;2022-11-04T12:14:31;3.50;;;1.60;;
18338;SDS011;9295;44.484;11.240;2022-11-04T12:17:17;3.20;;;1.27;;
18338;SDS011;9295;44.484;11.240;2022-11-04T12:19:58;2.83;;;1.20;;
18338;SDS011;9295;44.484;11.240;2022-11-04T12:22:43;3.87;;;1.33;;
18338;SDS011;9295;44.484;11.240;2022-11-04T12:25:20;2.17;;;1.10;;
18338;SDS011;9295;44.484;11.240;2022-11-04T12:28:00;3.60;;;1.27;;
18338;SDS011;9295;44.484;11.240;2022-11-04T12:30:37;4.80;;;1.50;;
18338;SDS011;9295;44.484;11.240;2022-11-04T12:33:21;8.13;;;1.30;;
18338;SDS011;9295;44.484;11.240;2022-11-04T12:36:08;4.17;;;1.43;;
18338;SDS011;9295;44.484;11.240;2022-11-04T12:38:51;3.03;;;1.50;;
18338;SDS011;9295;44.484;11.240;2022-11-04T12:41:32;2.67;;;1.33;;
18338;SDS011;9295;44.484;11.240;2022-11-04T12:44:32;5.00;;;1.30;;
18338;SDS011;9295;44.484;11.240;2022-11-04T12:47:08;3.27;;;1.20;;
18338;SDS011;9295;44.484;11.240;2022-11-04T12:49:52;2.93;;;1.27;;
18338;SDS011;9295;44.484;11.240;2022-11-04T12:52:33;3.33;;;1.30;;
18338;SDS011;9295;44.484;11.240;2022-11-04T12:55:18;3.30;;;1.10;;
18338;SDS011;9295;44.484;11.240;2022-11-04T12:57:54;7.00;;;1.20;;
18338;SDS011;9295;44.484;11.240;2022-11-04T13:00:32;2.50;;;1.17;;
18338;SDS011;9295;44.484;11.240;2022-11-04T13:03:03;3.60;;;1.10;;
18338;SDS011;9295;44.484;11.240;2022-11-04T13:05:39;2.10;;;1.10;;
18338;SDS011;9295;44.484;11.240;2022-11-04T13:08:13;2.10;;;1.10;;
18338;SDS011;9295;44.484;11.240;2022-11-04T13:10:48;2.77;;;1.10;;
18338;SDS011;9295;44.484;11.240;2022-11-04T13:13:21;3.13;;;1.10;;
18338;SDS011;9295;44.484;11.240;2022-11-04T13:15:56;2.30;;;1.20;;
18338;SDS011;9295;44.484;11.240;2022-11-04T13:18:27;3.03;;;1.13;;
18338;SDS011;9295;44.484;11.240;2022-11-04T13:21:01;3.90;;;1.00;;
18338;SDS011;9295;44.484;11.240;2022-11-04T13:23:33;4.73;;;1.20;;
18338;SDS011;9295;44.484;11.240;2022-11-04T13:26:08;4.93;;;1.13;;
18338;SDS011;9295;44.484;11.240;2022-11-04T13:28:40;2.57;;;1.10;;
18338;SDS011;9295;44.484;11.240;2022-11-04T13:31:13;3.17;;;1.10;;
18338;SDS011;9295;44.484;11.240;2022-11-04T13:33:50;2.70;;;1.20;;
18338;SDS011;9295;44.484;11.240;2022-11-04T13:36:25;2.10;;;1.10;;
18338;SDS011;9295;44.484;11.240;2022-11-04T13:39:04;15.33;;;1.40;;
18338;SDS011;9295;44.484;11.240;2022-11-04T13:44:42;4.10;;;1.60;;
18338;SDS011;9295;44.484;11.240;2022-11-04T13:47:16;6.20;;;1.23;;
18338;SDS011;9295;44.484;11.240;2022-11-04T13:49:48;3.40;;;1.10;;
18338;SDS011;9295;44.484;11.240;2022-11-04T13:52:20;3.60;;;1.20;;
18338;SDS011;9295;44.484;11.240;2022-11-04T13:54:51;3.03;;;1.30;;
18338;SDS011;9295;44.484;11.240;2022-11-04T13:57:23;3.70;;;1.37;;
18338;SDS011;9295;44.484;11.240;2022-11-04T14:02:51;4.53;;;1.50;;
18338;SDS011;9295;44.484;11.240;2022-11-04T14:08:29;22.33;;;2.50;;
18338;SDS011;9295;44.484;11.240;2022-11-04T14:11:02;12.03;;;2.70;;
18338;SDS011;9295;44.484;11.240;2022-11-04T14:16:42;13.40;;;2.10;;
18338;SDS011;9295;44.484;11.240;2022-11-04T14:22:30;5.60;;;2.20;;
18338;SDS011;9295;44.484;11.240;2022-11-04T14:25:14;11.57;;;2.57;;
18338;SDS011;9295;44.484;11.240;2022-11-04T14:27:48;3.80;;;1.67;;
18338;SDS011;9295;44.484;11.240;2022-11-04T14:33:18;4.40;;;1.40;;
18338;SDS011;9295;44.484;11.240;2022-11-04T14:36:12;3.40;;;1.20;;
18338;SDS011;9295;44.484;11.240;2022-11-04T14:38:46;3.93;;;1.17;;
18338;SDS011;9295;44.484;11.240;2022-11-04T14:41:22;7.20;;;1.30;;
18338;SDS011;9295;44.484;11.240;2022-11-04T14:44:00;3.97;;;1.40;;
18338;SDS011;9295;44.484;11.240;2022-11-04T14:46:34;4.10;;;1.40;;
18338;SDS011;9295;44.484;11.240;2022-11-04T14:49:17;2.60;;;1.40;;
18338;SDS011;9295;44.484;11.240;2022-11-04T14:52:15;4.80;;;1.20;;
18338;SDS011;9295;44.484;11.240;2022-11-04T14:54:50;2.67;;;1.33;;
18338;SDS011;9295;44.484;11.240;2022-11-04T14:57:23;3.20;;;1.20;;
18338;SDS011;9295;44.484;11.240;2022-11-04T14:59:51;4.47;;;1.33;;
18338;SDS011;9295;44.484;11.240;2022-11-04T15:02:20;3.87;;;1.47;;
18338;SDS011;9295;44.484;11.240;2022-11-04T15:04:52;3.53;;;1.13;;
18338;SDS011;9295;44.484;11.240;2022-11-04T15:07:27;3.53;;;1.50;;
18338;SDS011;9295;44.484;11.240;2022-11-04T15:10:03;5.20;;;1.70;;
18338;SDS011;9295;44.484;11.240;2022-11-04T15:12:45;4.77;;;1.60;;
18338;SDS011;9295;44.484;11.240;2022-11-04T15:18:12;3.80;;;1.40;;
18338;SDS011;9295;44.484;11.240;2022-11-04T15:20:44;4.33;;;1.67;;
18338;SDS011;9295;44.484;11.240;2022-11-04T15:23:15;3.90;;;1.53;;
18338;SDS011;9295;44.484;11.240;2022-11-04T15:25:49;2.93;;;1.40;;
18338;SDS011;9295;44.484;11.240;2022-11-04T15:28:19;2.80;;;1.33;;
18338;SDS011;9295;44.484;11.240;2022-11-04T15:30:55;3.60;;;1.20;;
18338;SDS011;9295;44.484;11.240;2022-11-04T15:33:26;4.70;;;1.20;;
18338;SDS011;9295;44.484;11.240;2022-11-04T15:35:55;2.07;;;1.20;;
18338;SDS011;9295;44.484;11.240;2022-11-04T15:38:25;2.60;;;1.10;;
18338;SDS011;9295;44.484;11.240;2022-11-04T15:40:56;2.63;;;1.30;;
18338;SDS011;9295;44.484;11.240;2022-11-04T15:43:46;3.43;;;1.70;;
18338;SDS011;9295;44.484;11.240;2022-11-04T15:46:17;4.60;;;1.60;;
18338;SDS011;9295;44.484;11.240;2022-11-04T15:49:00;3.77;;;1.23;;